createdAt,value
2022-10-06T00:00:46.826Z,0.00
2022-10-06T00:01:46.843Z,0.00
2022-10-06T00:02:46.927Z,0.00
2022-10-06T00:03:46.779Z,0.00
2022-10-06T00:04:46.788Z,0.00
2022-10-06T00:05:46.747Z,0.00
2022-10-06T00:06:46.730Z,0.00
2022-10-06T00:07:46.728Z,0.00
2022-10-06T00:08:46.706Z,0.00
2022-10-06T00:09:46.700Z,0.00
2022-10-06T00:10:46.678Z,0.00
2022-10-06T00:11:46.675Z,0.00
2022-10-06T00:12:46.655Z,0.00
2022-10-06T00:13:46.645Z,0.00
2022-10-06T00:14:46.629Z,0.00
2022-10-06T00:15:46.677Z,0.00
2022-10-06T00:16:46.595Z,0.00
2022-10-06T00:17:46.595Z,0.00
2022-10-06T00:18:46.569Z,0.00
2022-10-06T00:19:46.558Z,0.00
2022-10-06T00:20:46.563Z,0.00
2022-10-06T00:21:46.534Z,0.00
2022-10-06T00:22:46.514Z,0.00
2022-10-06T00:23:46.511Z,0.00
2022-10-06T00:24:46.495Z,0.00
2022-10-06T00:25:46.483Z,0.00
2022-10-06T00:26:46.464Z,0.00
2022-10-06T00:27:46.450Z,0.00
2022-10-06T00:28:46.506Z,0.00
2022-10-06T00:29:46.426Z,0.00
2022-10-06T00:30:46.508Z,0.00
2022-10-06T00:31:46.397Z,0.00
2022-10-06T00:32:46.386Z,0.00
2022-10-06T00:33:46.372Z,0.00
2022-10-06T00:34:46.356Z,0.00
2022-10-06T00:35:46.348Z,0.00
2022-10-06T00:36:46.345Z,0.00
2022-10-06T00:37:46.312Z,0.00
2022-10-06T00:38:46.301Z,0.00
2022-10-06T00:39:46.292Z,0.00
2022-10-06T00:40:46.278Z,0.00
2022-10-06T00:41:46.268Z,0.00
2022-10-06T00:42:46.248Z,0.00
2022-10-06T00:43:46.236Z,0.00
2022-10-06T00:44:46.221Z,0.00
2022-10-06T00:45:46.209Z,0.00
2022-10-06T00:46:46.412Z,0.00
2022-10-06T00:47:46.181Z,0.00
2022-10-06T00:48:46.162Z,0.00
2022-10-06T00:49:46.149Z,0.00
2022-10-06T00:50:46.135Z,0.00
2022-10-06T00:51:46.134Z,0.00
2022-10-06T00:52:46.141Z,0.00
2022-10-06T00:53:46.099Z,0.00
2022-10-06T00:54:46.090Z,0.00
2022-10-06T00:55:46.069Z,0.00
2022-10-06T00:56:46.054Z,0.00
2022-10-06T00:57:46.052Z,0.00
2022-10-06T00:58:46.027Z,0.00
2022-10-06T00:59:46.016Z,0.00
2022-10-06T01:00:46.000Z,0.00
2022-10-06T01:01:46.083Z,0.00
2022-10-06T01:02:46.053Z,0.00
2022-10-06T01:03:45.965Z,0.00
2022-10-06T01:04:45.952Z,0.00
2022-10-06T01:05:45.941Z,0.00
2022-10-06T01:06:45.926Z,0.00
2022-10-06T01:07:45.915Z,0.00
2022-10-06T01:08:45.917Z,0.00
2022-10-06T01:09:45.893Z,0.00
2022-10-06T01:10:45.867Z,0.00
2022-10-06T01:11:45.854Z,0.00
2022-10-06T01:12:45.836Z,0.00
2022-10-06T01:13:45.825Z,0.00
2022-10-06T01:14:45.812Z,0.00
2022-10-06T01:15:45.909Z,0.00
2022-10-06T01:16:45.783Z,0.00
2022-10-06T01:17:45.775Z,0.00
2022-10-06T01:18:45.755Z,0.00
2022-10-06T01:19:45.751Z,0.00
2022-10-06T01:20:45.732Z,0.00
2022-10-06T01:21:45.724Z,0.00
2022-10-06T01:22:45.709Z,0.00
2022-10-06T01:23:45.693Z,0.00
2022-10-06T01:24:45.695Z,0.00
2022-10-06T01:25:45.662Z,0.00
2022-10-06T01:26:45.653Z,0.00
2022-10-06T01:27:45.641Z,0.00
2022-10-06T01:28:45.678Z,0.00
2022-10-06T01:29:45.611Z,0.00
2022-10-06T01:30:45.634Z,0.00
2022-10-06T01:31:45.587Z,0.00
2022-10-06T01:32:45.571Z,0.00
2022-10-06T01:33:45.562Z,0.00
2022-10-06T01:34:45.546Z,0.00
2022-10-06T01:35:45.530Z,0.00
2022-10-06T01:36:45.514Z,0.00
2022-10-06T01:37:45.501Z,0.00
2022-10-06T01:38:45.483Z,0.00
2022-10-06T01:39:45.480Z,0.00
2022-10-06T01:40:45.485Z,0.00
2022-10-06T01:41:45.453Z,0.00
2022-10-06T01:42:45.435Z,0.00
2022-10-06T01:43:45.419Z,0.00
2022-10-06T01:44:45.403Z,0.00
2022-10-06T01:45:45.392Z,0.00
2022-10-06T01:46:45.459Z,0.00
2022-10-06T01:47:45.366Z,0.00
2022-10-06T01:48:45.349Z,0.00
2022-10-06T01:49:45.342Z,0.00
2022-10-06T01:50:45.331Z,0.00
2022-10-06T01:51:45.317Z,0.00
2022-10-06T01:52:45.303Z,0.00
2022-10-06T01:53:45.293Z,0.00
2022-10-06T01:54:45.279Z,0.00
2022-10-06T01:55:45.313Z,0.00
2022-10-06T01:56:45.267Z,0.00
2022-10-06T01:57:45.238Z,0.00
2022-10-06T01:58:45.220Z,0.00
2022-10-06T01:59:45.216Z,0.00
2022-10-06T02:00:45.220Z,0.00
2022-10-06T02:01:45.247Z,0.00
2022-10-06T02:02:45.170Z,0.00
2022-10-06T02:03:45.155Z,0.00
2022-10-06T02:04:45.144Z,0.00
2022-10-06T02:05:45.129Z,0.00
2022-10-06T02:06:45.192Z,0.00
2022-10-06T02:07:45.103Z,0.00
2022-10-06T02:08:45.092Z,0.00
2022-10-06T02:09:45.070Z,0.00
2022-10-06T02:10:45.060Z,0.00
2022-10-06T02:11:45.050Z,0.00
2022-10-06T02:12:45.062Z,0.00
2022-10-06T02:13:45.018Z,0.00
2022-10-06T02:14:45.011Z,0.00
2022-10-06T02:15:45.060Z,0.00
2022-10-06T02:16:44.988Z,0.00
2022-10-06T02:17:45.321Z,0.00
2022-10-06T02:18:44.959Z,0.00
2022-10-06T02:19:44.943Z,0.00
2022-10-06T02:20:44.928Z,0.00
2022-10-06T02:21:44.912Z,0.00
2022-10-06T02:22:44.905Z,0.00
2022-10-06T02:23:44.893Z,0.00
2022-10-06T02:24:44.879Z,0.00
2022-10-06T02:25:44.872Z,0.00
2022-10-06T02:26:44.856Z,0.00
2022-10-06T02:27:44.837Z,0.00
2022-10-06T02:28:44.946Z,0.00
2022-10-06T02:29:44.808Z,0.00
2022-10-06T02:30:44.800Z,0.00
2022-10-06T02:31:44.800Z,0.00
2022-10-06T02:32:44.800Z,0.00
2022-10-06T02:33:44.761Z,0.00
2022-10-06T02:34:44.747Z,0.00
2022-10-06T02:35:44.730Z,0.00
2022-10-06T02:36:44.721Z,0.00
2022-10-06T02:37:44.701Z,0.00
2022-10-06T02:38:44.695Z,0.00
2022-10-06T02:39:44.678Z,0.00
2022-10-06T02:40:44.668Z,0.00
2022-10-06T02:41:44.654Z,0.00
2022-10-06T02:42:44.638Z,0.00
2022-10-06T02:43:44.622Z,0.00
2022-10-06T02:44:44.632Z,0.00
2022-10-06T02:45:44.594Z,0.00
2022-10-06T02:46:44.696Z,0.00
2022-10-06T02:47:44.574Z,0.00
2022-10-06T02:48:44.571Z,0.00
2022-10-06T02:49:44.546Z,0.00
2022-10-06T02:50:44.536Z,0.00
2022-10-06T02:51:44.519Z,0.00
2022-10-06T02:52:44.509Z,0.00
2022-10-06T02:53:44.494Z,0.00
2022-10-06T02:54:44.482Z,0.00
2022-10-06T02:55:44.466Z,0.00
2022-10-06T02:56:44.454Z,0.00
2022-10-06T02:57:44.440Z,0.00
2022-10-06T02:58:44.429Z,0.00
2022-10-06T02:59:44.412Z,0.00
2022-10-06T03:00:44.542Z,0.00
2022-10-06T03:01:44.542Z,0.00
2022-10-06T03:02:44.593Z,0.00
2022-10-06T03:03:44.356Z,0.00
2022-10-06T03:04:44.349Z,0.00
2022-10-06T03:05:44.337Z,0.00
2022-10-06T03:06:44.318Z,0.00
2022-10-06T03:07:44.306Z,0.00
2022-10-06T03:08:44.299Z,0.00
2022-10-06T03:09:44.279Z,0.00
2022-10-06T03:10:44.275Z,0.00
2022-10-06T03:11:44.263Z,0.00
2022-10-06T03:12:44.238Z,0.00
2022-10-06T03:13:44.224Z,0.00
2022-10-06T03:14:44.219Z,0.00
2022-10-06T03:15:44.214Z,0.00
2022-10-06T03:16:44.214Z,0.00
2022-10-06T03:17:44.175Z,0.00
2022-10-06T03:18:44.163Z,0.00
2022-10-06T03:19:44.148Z,0.00
2022-10-06T03:20:44.134Z,0.00
2022-10-06T03:21:44.116Z,0.00
2022-10-06T03:22:44.110Z,0.00
2022-10-06T03:23:44.096Z,0.00
2022-10-06T03:24:44.082Z,0.00
2022-10-06T03:25:44.068Z,0.00
2022-10-06T03:26:44.056Z,0.00
2022-10-06T03:27:44.036Z,0.00
2022-10-06T03:28:44.100Z,0.00
2022-10-06T03:29:44.009Z,0.00
2022-10-06T03:30:44.007Z,0.00
2022-10-06T03:31:44.032Z,0.00
2022-10-06T03:32:44.002Z,0.00
2022-10-06T03:33:43.962Z,0.00
2022-10-06T03:34:43.958Z,0.00
2022-10-06T03:35:43.931Z,0.00
2022-10-06T03:36:43.918Z,0.00
2022-10-06T03:37:43.903Z,0.00
2022-10-06T03:38:43.902Z,0.00
2022-10-06T03:39:43.886Z,0.00
2022-10-06T03:40:43.874Z,0.00
2022-10-06T03:41:43.861Z,0.00
2022-10-06T03:42:43.849Z,0.00
2022-10-06T03:43:43.829Z,0.00
2022-10-06T03:44:43.816Z,0.00
2022-10-06T03:45:43.799Z,0.00
2022-10-06T03:46:43.854Z,0.00
2022-10-06T03:47:43.774Z,0.00
2022-10-06T03:48:43.789Z,0.00
2022-10-06T03:49:43.751Z,0.00
2022-10-06T03:50:43.745Z,0.00
2022-10-06T03:51:43.717Z,0.00
2022-10-06T03:52:43.706Z,0.00
2022-10-06T03:53:43.690Z,0.00
2022-10-06T03:54:43.695Z,0.00
2022-10-06T03:55:43.666Z,0.00
2022-10-06T03:56:43.655Z,0.00
2022-10-06T03:57:43.638Z,0.00
2022-10-06T03:58:43.631Z,0.00
2022-10-06T03:59:43.629Z,0.00
2022-10-06T04:00:43.667Z,0.00
2022-10-06T04:01:43.697Z,0.00
2022-10-06T04:02:43.580Z,0.00
2022-10-06T04:03:43.557Z,0.00
2022-10-06T04:04:43.570Z,0.00
2022-10-06T04:05:43.535Z,0.00
2022-10-06T04:06:43.525Z,0.00
2022-10-06T04:07:43.533Z,0.00
2022-10-06T04:08:43.501Z,0.00
2022-10-06T04:09:43.486Z,0.00
2022-10-06T04:10:43.473Z,0.00
2022-10-06T04:11:43.455Z,0.00
2022-10-06T04:12:43.444Z,0.00
2022-10-06T04:13:43.425Z,0.00
2022-10-06T04:14:43.414Z,0.00
2022-10-06T04:15:43.402Z,0.00
2022-10-06T04:16:43.457Z,0.00
2022-10-06T04:17:43.376Z,0.00
2022-10-06T04:18:43.367Z,0.00
2022-10-06T04:19:43.356Z,0.00
2022-10-06T04:20:43.363Z,0.00
2022-10-06T04:21:43.321Z,0.00
2022-10-06T04:22:43.311Z,0.00
2022-10-06T04:23:43.294Z,0.00
2022-10-06T04:24:43.281Z,0.00
2022-10-06T04:25:43.267Z,0.00
2022-10-06T04:26:43.256Z,0.00
2022-10-06T04:27:43.238Z,0.00
2022-10-06T04:28:43.293Z,0.00
2022-10-06T04:29:43.210Z,0.00
2022-10-06T04:30:43.203Z,0.00
2022-10-06T04:31:43.282Z,0.00
2022-10-06T04:32:43.181Z,0.00
2022-10-06T04:33:43.162Z,0.00
2022-10-06T04:34:43.155Z,0.00
2022-10-06T04:35:43.142Z,0.00
2022-10-06T04:36:43.146Z,0.00
2022-10-06T04:37:43.112Z,0.00
2022-10-06T04:38:43.117Z,0.00
2022-10-06T04:39:43.086Z,0.00
2022-10-06T04:40:43.072Z,0.00
2022-10-06T04:41:43.053Z,0.00
2022-10-06T04:42:43.042Z,0.00
2022-10-06T04:43:43.031Z,0.00
2022-10-06T04:44:43.022Z,0.00
2022-10-06T04:45:43.070Z,0.00
2022-10-06T04:46:44.409Z,0.00
2022-10-06T04:47:42.974Z,0.00
2022-10-06T04:48:42.962Z,0.00
2022-10-06T04:49:42.947Z,0.00
2022-10-06T04:50:42.941Z,0.00
2022-10-06T04:51:42.920Z,0.00
2022-10-06T04:52:42.934Z,0.00
2022-10-06T04:53:42.904Z,0.00
2022-10-06T04:54:42.889Z,0.00
2022-10-06T04:55:42.871Z,0.00
2022-10-06T04:56:42.860Z,0.00
2022-10-06T04:57:42.844Z,0.00
2022-10-06T04:58:42.837Z,0.00
2022-10-06T04:59:42.819Z,0.00
2022-10-06T05:00:42.837Z,0.00
2022-10-06T05:01:42.792Z,4.00
2022-10-06T05:02:42.792Z,4.00
2022-10-06T05:03:42.760Z,0.00
2022-10-06T05:04:42.752Z,4.00
2022-10-06T05:05:42.732Z,4.00
2022-10-06T05:06:42.726Z,4.00
2022-10-06T05:07:42.709Z,4.00
2022-10-06T05:08:42.716Z,8.00
2022-10-06T05:09:42.682Z,8.00
2022-10-06T05:10:42.673Z,8.00
2022-10-06T05:11:42.663Z,12.00
2022-10-06T05:12:42.650Z,12.00
2022-10-06T05:13:42.631Z,16.00
2022-10-06T05:14:42.621Z,20.00
2022-10-06T05:15:42.600Z,24.00
2022-10-06T05:16:42.685Z,24.00
2022-10-06T05:17:42.572Z,32.00
2022-10-06T05:18:42.566Z,40.00
2022-10-06T05:19:42.549Z,44.00
2022-10-06T05:20:42.538Z,48.00
2022-10-06T05:21:42.523Z,60.00
2022-10-06T05:22:42.513Z,68.00
2022-10-06T05:23:42.496Z,80.00
2022-10-06T05:24:42.511Z,92.00
2022-10-06T05:25:42.474Z,104.00
2022-10-06T05:26:42.460Z,120.00
2022-10-06T05:27:42.541Z,132.00
2022-10-06T05:28:42.496Z,152.00
2022-10-06T05:29:42.412Z,168.00
2022-10-06T05:30:42.403Z,184.00
2022-10-06T05:31:42.470Z,200.00
2022-10-06T05:32:42.373Z,220.00
2022-10-06T05:33:42.358Z,244.00
2022-10-06T05:34:42.351Z,264.00
2022-10-06T05:35:42.338Z,284.00
2022-10-06T05:36:42.331Z,308.00
2022-10-06T05:37:42.468Z,328.00
2022-10-06T05:38:42.299Z,352.00
2022-10-06T05:39:42.283Z,376.00
2022-10-06T05:40:42.407Z,404.00
2022-10-06T05:41:42.257Z,432.00
2022-10-06T05:42:42.250Z,464.00
2022-10-06T05:43:42.222Z,492.00
2022-10-06T05:44:42.217Z,520.00
2022-10-06T05:45:42.230Z,552.00
2022-10-06T05:46:42.189Z,576.00
2022-10-06T05:47:42.178Z,616.00
2022-10-06T05:48:42.165Z,652.00
2022-10-06T05:49:42.172Z,708.00
2022-10-06T05:50:42.140Z,772.00
2022-10-06T05:51:42.135Z,832.00
2022-10-06T05:52:42.107Z,880.00
2022-10-06T05:53:42.094Z,940.00
2022-10-06T05:54:42.089Z,988.00
2022-10-06T05:55:42.064Z,1028.00
2022-10-06T05:56:42.209Z,1060.00
2022-10-06T05:57:42.038Z,1072.00
2022-10-06T05:58:42.029Z,1056.00
2022-10-06T05:59:42.019Z,1024.00
2022-10-06T06:00:42.003Z,988.00
2022-10-06T06:01:42.109Z,944.00
2022-10-06T06:02:42.032Z,904.00
2022-10-06T06:03:41.963Z,868.00
2022-10-06T06:04:41.956Z,840.00
2022-10-06T06:05:41.936Z,872.00
2022-10-06T06:06:41.929Z,912.00
2022-10-06T06:07:41.905Z,1000.00
2022-10-06T06:08:41.894Z,1028.00
2022-10-06T06:09:41.877Z,1084.00
2022-10-06T06:10:41.872Z,1156.00
2022-10-06T06:11:41.857Z,1256.00
2022-10-06T06:12:41.869Z,1348.00
2022-10-06T06:13:41.836Z,1396.00
2022-10-06T06:14:41.821Z,1492.00
2022-10-06T06:15:41.798Z,1544.00
2022-10-06T06:16:42.004Z,1636.00
2022-10-06T06:17:41.776Z,1744.00
2022-10-06T06:18:41.763Z,1832.00
2022-10-06T06:19:41.752Z,1952.00
2022-10-06T06:20:41.736Z,1992.00
2022-10-06T06:21:41.728Z,1916.00
2022-10-06T06:22:41.709Z,1872.00
2022-10-06T06:23:41.694Z,1804.00
2022-10-06T06:24:41.676Z,1784.00
2022-10-06T06:25:41.669Z,1752.00
2022-10-06T06:26:41.653Z,1728.00
2022-10-06T06:27:41.643Z,1792.00
2022-10-06T06:28:41.765Z,1984.00
2022-10-06T06:29:41.617Z,1988.00
2022-10-06T06:30:41.600Z,1892.00
2022-10-06T06:31:41.667Z,1876.00
2022-10-06T06:32:41.575Z,1972.00
2022-10-06T06:33:41.570Z,2212.00
2022-10-06T06:34:41.552Z,2332.00
2022-10-06T06:35:41.536Z,2388.00
2022-10-06T06:36:41.515Z,2360.00
2022-10-06T06:37:41.503Z,2276.00
2022-10-06T06:38:41.489Z,2180.00
2022-10-06T06:39:41.486Z,2164.00
2022-10-06T06:40:41.466Z,2200.00
2022-10-06T06:41:41.458Z,2300.00
2022-10-06T06:42:41.433Z,2416.00
2022-10-06T06:43:41.425Z,2460.00
2022-10-06T06:44:41.429Z,2500.00
2022-10-06T06:45:41.454Z,2428.00
2022-10-06T06:46:41.377Z,2296.00
2022-10-06T06:47:41.375Z,2264.00
2022-10-06T06:48:41.359Z,2348.00
2022-10-06T06:49:41.348Z,2432.00
2022-10-06T06:50:41.331Z,2520.00
2022-10-06T06:51:41.322Z,2640.00
2022-10-06T06:52:41.304Z,2788.00
2022-10-06T06:53:41.296Z,2972.00
2022-10-06T06:54:41.278Z,3300.00
2022-10-06T06:55:41.268Z,3668.00
2022-10-06T06:56:41.252Z,3896.00
2022-10-06T06:57:41.241Z,4268.00
2022-10-06T06:58:41.224Z,4616.00
2022-10-06T06:59:41.214Z,4988.00
2022-10-06T07:00:41.222Z,5088.00
2022-10-06T07:01:41.344Z,4916.00
2022-10-06T07:02:41.172Z,4624.00
2022-10-06T07:03:57.912Z,4164.00
2022-10-06T07:04:42.166Z,3848.00
2022-10-06T07:05:41.134Z,3692.00
2022-10-06T07:06:41.112Z,3704.00
2022-10-06T07:07:41.105Z,3704.00
2022-10-06T07:08:41.088Z,3812.00
2022-10-06T07:09:41.074Z,3784.00
2022-10-06T07:10:41.059Z,3500.00
2022-10-06T07:11:41.057Z,3544.00
2022-10-06T07:12:41.037Z,3684.00
2022-10-06T07:13:41.028Z,3912.00
2022-10-06T07:14:41.011Z,4372.00
2022-10-06T07:15:41.044Z,5228.00
2022-10-06T07:16:41.030Z,6340.00
2022-10-06T07:17:40.973Z,7516.00
2022-10-06T07:18:40.956Z,7896.00
2022-10-06T07:19:40.941Z,7716.00
2022-10-06T07:20:40.925Z,7160.00
2022-10-06T07:21:40.927Z,6724.00
2022-10-06T07:22:41.001Z,6644.00
2022-10-06T07:23:40.896Z,6856.00
2022-10-06T07:24:40.876Z,6300.00
2022-10-06T07:25:40.865Z,5436.00
2022-10-06T07:26:40.852Z,4940.00
2022-10-06T07:27:40.835Z,5204.00
2022-10-06T07:28:40.873Z,5264.00
2022-10-06T07:29:40.810Z,5128.00
2022-10-06T07:30:41.178Z,4980.00
2022-10-06T07:31:40.836Z,4408.00
2022-10-06T07:32:40.827Z,4004.00
2022-10-06T07:33:40.764Z,3624.00
2022-10-06T07:34:40.739Z,3480.00
2022-10-06T07:35:40.736Z,3424.00
2022-10-06T07:36:40.719Z,3380.00
2022-10-06T07:37:40.740Z,3376.00
2022-10-06T07:38:40.689Z,3236.00
2022-10-06T07:39:40.682Z,2964.00
2022-10-06T07:40:46.337Z,2748.00
2022-10-06T07:41:41.675Z,2756.00
2022-10-06T07:42:40.636Z,2816.00
2022-10-06T07:43:40.622Z,2832.00
2022-10-06T07:44:40.604Z,2932.00
2022-10-06T07:45:40.638Z,3076.00
2022-10-06T07:46:40.577Z,3160.00
2022-10-06T07:47:40.571Z,3148.00
2022-10-06T07:48:40.581Z,3040.00
2022-10-06T07:49:40.543Z,2984.00
2022-10-06T07:50:40.528Z,2916.00
2022-10-06T07:51:40.523Z,2924.00
2022-10-06T07:52:40.503Z,2964.00
2022-10-06T07:53:40.495Z,3036.00
2022-10-06T07:54:40.479Z,3220.00
2022-10-06T07:55:40.463Z,3468.00
2022-10-06T07:56:40.450Z,3584.00
2022-10-06T07:57:40.440Z,3648.00
2022-10-06T07:58:40.421Z,3696.00
2022-10-06T07:59:40.415Z,3740.00
2022-10-06T08:00:40.402Z,3732.00
2022-10-06T08:01:40.531Z,3736.00
2022-10-06T08:02:40.411Z,3780.00
2022-10-06T08:03:40.370Z,3824.00
2022-10-06T08:04:40.368Z,3716.00
2022-10-06T08:05:40.339Z,3464.00
2022-10-06T08:06:40.322Z,3192.00
2022-10-06T08:07:40.306Z,2956.00
2022-10-06T08:08:40.290Z,2912.00
2022-10-06T08:09:40.278Z,3020.00
2022-10-06T08:10:40.261Z,3176.00
2022-10-06T08:11:40.253Z,3328.00
2022-10-06T08:12:40.257Z,3424.00
2022-10-06T08:13:40.227Z,3456.00
2022-10-06T08:14:40.207Z,3328.00
2022-10-06T08:15:40.241Z,3080.00
2022-10-06T08:16:40.186Z,2940.00
2022-10-06T08:17:40.176Z,3024.00
2022-10-06T08:18:47.533Z,3280.00
2022-10-06T08:19:41.173Z,3484.00
2022-10-06T08:20:40.238Z,3648.00
2022-10-06T08:21:40.124Z,3976.00
2022-10-06T08:22:40.305Z,4304.00
2022-10-06T08:23:40.087Z,4336.00
2022-10-06T08:25:04.092Z,4188.00
2022-10-06T08:25:41.081Z,3972.00
2022-10-06T08:26:40.044Z,3708.00
2022-10-06T08:27:40.032Z,3484.00
2022-10-06T08:28:40.138Z,3456.00
2022-10-06T08:29:40.005Z,3616.00
2022-10-06T08:30:39.993Z,4060.00
2022-10-06T08:31:40.054Z,4620.00
2022-10-06T08:32:39.964Z,5160.00
2022-10-06T08:33:39.966Z,5508.00
2022-10-06T08:34:39.939Z,5580.00
2022-10-06T08:35:39.927Z,5408.00
2022-10-06T08:36:44.983Z,5504.00
2022-10-06T08:37:40.917Z,6280.00
2022-10-06T08:38:39.883Z,7048.00
2022-10-06T08:39:39.875Z,7232.00
2022-10-06T08:40:39.861Z,7148.00
2022-10-06T08:41:39.854Z,7344.00
2022-10-06T08:42:39.826Z,7248.00
2022-10-06T08:43:39.820Z,6904.00
2022-10-06T08:44:39.801Z,6588.00
2022-10-06T08:45:39.871Z,6260.00
2022-10-06T08:46:39.775Z,5552.00
2022-10-06T08:47:39.772Z,4624.00
2022-10-06T08:48:39.751Z,3972.00
2022-10-06T08:49:39.748Z,3708.00
2022-10-06T08:50:39.722Z,3584.00
2022-10-06T08:51:39.714Z,3652.00
2022-10-06T08:52:39.715Z,3816.00
2022-10-06T08:53:39.687Z,4040.00
2022-10-06T08:54:39.668Z,4236.00
2022-10-06T08:55:39.662Z,4316.00
2022-10-06T08:56:39.646Z,4272.00
2022-10-06T08:57:39.637Z,4232.00
2022-10-06T08:58:39.619Z,4136.00
2022-10-06T08:59:39.605Z,4016.00
2022-10-06T09:00:39.608Z,4076.00
2022-10-06T09:01:39.681Z,4256.00
2022-10-06T09:02:39.610Z,4500.00
2022-10-06T09:03:39.557Z,4916.00
2022-10-06T09:04:39.541Z,5316.00
2022-10-06T09:05:39.531Z,5632.00
2022-10-06T09:06:39.509Z,6004.00
2022-10-06T09:07:39.497Z,6212.00
2022-10-06T09:08:39.502Z,6304.00
2022-10-06T09:09:39.471Z,6392.00
2022-10-06T09:10:39.456Z,6468.00
2022-10-06T09:11:39.452Z,6360.00
2022-10-06T09:12:39.433Z,6044.00
2022-10-06T09:13:39.425Z,5420.00
2022-10-06T09:14:39.408Z,4824.00
2022-10-06T09:15:39.449Z,4252.00
2022-10-06T09:16:39.380Z,3784.00
2022-10-06T09:17:39.370Z,3596.00
2022-10-06T09:18:56.442Z,3652.00
2022-10-06T09:19:40.362Z,3680.00
2022-10-06T09:20:39.326Z,3620.00
2022-10-06T09:21:39.313Z,3496.00
2022-10-06T09:22:39.306Z,3424.00
2022-10-06T09:23:39.300Z,3464.00
2022-10-06T09:24:42.472Z,3580.00
2022-10-06T09:25:39.263Z,3636.00
2022-10-06T09:26:39.248Z,3664.00
2022-10-06T09:27:39.583Z,3776.00
2022-10-06T09:28:39.293Z,4028.00
2022-10-06T09:29:39.205Z,4304.00
2022-10-06T09:30:39.186Z,4708.00
2022-10-06T09:31:39.307Z,5152.00
2022-10-06T09:32:39.168Z,5716.00
2022-10-06T09:33:39.156Z,6124.00
2022-10-06T09:34:39.139Z,6516.00
2022-10-06T09:35:39.124Z,6612.00
2022-10-06T09:36:39.107Z,6332.00
2022-10-06T09:37:39.097Z,5864.00
2022-10-06T09:38:39.089Z,5508.00
2022-10-06T09:39:39.077Z,5552.00
2022-10-06T09:40:39.096Z,6088.00
2022-10-06T09:41:39.053Z,6760.00
2022-10-06T09:42:39.031Z,7336.00
2022-10-06T09:43:39.022Z,8252.00
2022-10-06T09:44:39.005Z,9316.00
2022-10-06T09:45:38.997Z,10224.00
2022-10-06T09:46:38.985Z,10840.00
2022-10-06T09:47:38.975Z,12232.00
2022-10-06T09:48:38.955Z,11956.00
2022-10-06T09:49:38.965Z,13340.00
2022-10-06T09:50:38.928Z,12580.00
2022-10-06T09:51:38.916Z,12196.00
2022-10-06T09:52:38.900Z,11700.00
2022-10-06T09:53:39.041Z,11480.00
2022-10-06T09:54:38.875Z,11580.00
2022-10-06T09:55:38.871Z,11784.00
2022-10-06T09:56:38.872Z,12316.00
2022-10-06T09:57:38.835Z,13276.00
2022-10-06T09:58:38.818Z,12852.00
2022-10-06T09:59:40.254Z,13192.00
2022-10-06T10:00:38.860Z,14468.00
2022-10-06T10:01:38.778Z,13532.00
2022-10-06T10:02:38.787Z,13744.00
2022-10-06T10:03:38.757Z,13964.00
2022-10-06T10:04:38.744Z,14788.00
2022-10-06T10:05:38.733Z,14844.00
2022-10-06T10:06:38.714Z,13948.00
2022-10-06T10:07:38.701Z,13388.00
2022-10-06T10:08:38.685Z,13016.00
2022-10-06T10:09:38.675Z,13068.00
2022-10-06T10:10:38.661Z,13432.00
2022-10-06T10:11:38.650Z,13080.00
2022-10-06T10:12:38.656Z,13044.00
2022-10-06T10:13:38.626Z,13072.00
2022-10-06T10:14:38.609Z,12996.00
2022-10-06T10:15:38.589Z,12612.00
2022-10-06T10:16:38.634Z,12184.00
2022-10-06T10:17:38.566Z,12236.00
2022-10-06T10:18:38.551Z,11516.00
2022-10-06T10:19:38.536Z,10928.00
2022-10-06T10:20:38.522Z,10560.00
2022-10-06T10:21:38.515Z,10252.00
2022-10-06T10:22:38.495Z,9996.00
2022-10-06T10:23:38.492Z,10028.00
2022-10-06T10:24:38.474Z,9940.00
2022-10-06T10:25:38.466Z,9928.00
2022-10-06T10:26:38.442Z,9812.00
2022-10-06T10:27:38.432Z,9616.00
2022-10-06T10:28:38.501Z,9452.00
2022-10-06T10:29:38.405Z,9084.00
2022-10-06T10:30:38.396Z,9424.00
2022-10-06T10:31:38.465Z,9908.00
2022-10-06T10:32:38.625Z,9940.00
2022-10-06T10:33:38.357Z,10380.00
2022-10-06T10:34:38.341Z,11224.00
2022-10-06T10:35:38.329Z,12496.00
2022-10-06T10:36:38.325Z,16096.00
2022-10-06T10:37:38.301Z,16768.00
2022-10-06T10:38:38.294Z,17632.00
2022-10-06T10:39:38.269Z,18144.00
2022-10-06T10:40:38.260Z,18816.00
2022-10-06T10:41:38.243Z,19200.00
2022-10-06T10:42:38.240Z,18592.00
2022-10-06T10:43:38.225Z,19264.00
2022-10-06T10:44:38.240Z,20352.00
2022-10-06T10:45:38.197Z,16384.00
2022-10-06T10:46:38.256Z,25536.00
2022-10-06T10:47:38.165Z,18624.00
2022-10-06T10:48:38.153Z,18336.00
2022-10-06T10:49:38.137Z,19040.00
2022-10-06T10:50:38.130Z,19584.00
2022-10-06T10:51:38.115Z,21088.00
2022-10-06T10:52:38.110Z,27584.00
2022-10-06T10:53:40.330Z,18656.00
2022-10-06T10:54:38.078Z,17376.00
2022-10-06T10:55:38.057Z,19424.00
2022-10-06T10:56:38.046Z,17920.00
2022-10-06T10:57:38.032Z,18208.00
2022-10-06T10:58:38.026Z,18880.00
2022-10-06T10:59:38.010Z,21184.00
2022-10-06T11:00:38.095Z,19296.00
2022-10-06T11:01:38.031Z,18208.00
2022-10-06T11:02:37.977Z,18048.00
2022-10-06T11:03:37.953Z,18592.00
2022-10-06T11:04:37.946Z,19040.00
2022-10-06T11:05:37.931Z,17024.00
2022-10-06T11:06:37.919Z,15872.00
2022-10-06T11:07:37.910Z,16928.00
2022-10-06T11:08:37.899Z,15936.00
2022-10-06T11:09:37.883Z,15872.00
2022-10-06T11:10:37.871Z,17952.00
2022-10-06T11:11:37.853Z,34112.00
2022-10-06T11:12:37.843Z,41312.00
2022-10-06T11:13:37.821Z,41824.00
2022-10-06T11:14:37.819Z,45472.00
2022-10-06T11:15:37.802Z,43744.00
2022-10-06T11:16:37.848Z,46688.00
2022-10-06T11:17:37.776Z,47328.00
2022-10-06T11:18:37.766Z,47008.00
2022-10-06T11:19:37.749Z,40608.00
2022-10-06T11:20:37.736Z,27936.00
2022-10-06T11:21:37.721Z,21376.00
2022-10-06T11:22:37.711Z,21984.00
2022-10-06T11:23:37.699Z,25952.00
2022-10-06T11:24:37.692Z,41088.00
2022-10-06T11:25:37.669Z,51904.00
2022-10-06T11:26:37.693Z,52256.00
2022-10-06T11:27:37.643Z,52320.00
2022-10-06T11:28:37.671Z,26720.00
2022-10-06T11:29:37.617Z,13812.00
2022-10-06T11:30:37.606Z,14984.00
2022-10-06T11:31:37.607Z,16448.00
2022-10-06T11:32:37.604Z,49664.00
2022-10-06T11:33:37.567Z,49472.00
2022-10-06T11:34:37.557Z,38592.00
2022-10-06T11:35:37.550Z,48992.00
2022-10-06T11:36:37.536Z,48448.00
2022-10-06T11:37:37.518Z,48096.00
2022-10-06T11:38:37.514Z,47392.00
2022-10-06T11:39:37.490Z,46624.00
2022-10-06T11:40:37.481Z,16128.00
2022-10-06T11:41:37.469Z,44000.00
2022-10-06T11:42:37.455Z,31168.00
2022-10-06T11:43:37.445Z,29408.00
2022-10-06T11:44:38.238Z,45728.00
2022-10-06T11:45:37.447Z,33632.00
2022-10-06T11:46:40.081Z,28192.00
2022-10-06T11:47:37.387Z,18848.00
2022-10-06T11:48:37.400Z,46912.00
2022-10-06T11:49:37.375Z,47360.00
2022-10-06T11:50:37.355Z,28800.00
2022-10-06T11:51:37.349Z,35264.00
2022-10-06T11:52:37.333Z,17344.00
2022-10-06T11:53:37.320Z,46656.00
2022-10-06T11:54:37.307Z,46240.00
2022-10-06T11:55:37.291Z,32000.00
2022-10-06T11:56:37.284Z,25088.00
2022-10-06T11:57:37.265Z,13388.00
2022-10-06T11:58:42.227Z,12248.00
2022-10-06T11:59:37.248Z,12980.00
2022-10-06T12:00:37.237Z,13636.00
2022-10-06T12:01:37.291Z,11916.00
2022-10-06T12:02:37.320Z,11308.00
2022-10-06T12:03:37.188Z,11460.00
2022-10-06T12:04:37.205Z,11656.00
2022-10-06T12:05:55.848Z,11696.00
2022-10-06T12:06:38.179Z,12584.00
2022-10-06T12:07:37.143Z,13724.00
2022-10-06T12:08:37.137Z,14012.00
2022-10-06T12:09:37.127Z,17216.00
2022-10-06T12:10:37.111Z,18816.00
2022-10-06T12:11:37.089Z,14240.00
2022-10-06T12:12:37.082Z,11892.00
2022-10-06T12:14:26.511Z,12680.00
2022-10-06T12:17:37.021Z,13440.00
2022-10-06T12:18:37.003Z,13400.00
2022-10-06T12:19:36.985Z,20800.00
2022-10-06T12:20:36.998Z,16992.00
2022-10-06T12:21:36.963Z,12616.00
2022-10-06T12:22:36.953Z,12304.00
2022-10-06T12:23:36.943Z,13524.00
2022-10-06T12:24:36.943Z,14888.00
2022-10-06T12:25:36.912Z,35776.00
2022-10-06T12:26:36.903Z,16512.00
2022-10-06T12:27:36.892Z,14396.00
2022-10-06T12:28:36.946Z,15360.00
2022-10-06T12:29:36.869Z,15840.00
2022-10-06T12:30:36.923Z,20128.00
2022-10-06T12:31:36.832Z,19904.00
2022-10-06T12:32:36.825Z,14840.00
2022-10-06T12:33:36.807Z,12816.00
2022-10-06T12:34:36.808Z,11964.00